createdAt,value
2018-11-06T00:00:56.257Z,28.13
2018-11-06T00:03:30.605Z,29.57
2018-11-06T00:05:59.476Z,30.37
2018-11-06T00:08:28.605Z,30.07
2018-11-06T00:10:57.482Z,28.47
2018-11-06T00:13:26.634Z,29.27
2018-11-06T00:15:55.494Z,28.80
2018-11-06T00:18:24.605Z,29.83
2018-11-06T00:20:53.689Z,29.53
2018-11-06T00:23:22.635Z,29.70
2018-11-06T00:31:49.763Z,28.20
2018-11-06T00:34:19.085Z,28.10
2018-11-06T00:36:48.290Z,28.83
2018-11-06T00:39:18.488Z,27.83
2018-11-06T00:41:47.470Z,29.17
2018-11-06T00:47:20.270Z,27.97
2018-11-06T00:49:49.443Z,28.73
2018-11-06T00:52:18.672Z,29.17
2018-11-06T00:54:47.886Z,27.87
2018-11-06T00:57:16.866Z,27.87
2018-11-06T00:59:46.105Z,25.93
2018-11-06T01:02:15.083Z,28.10
2018-11-06T01:04:44.257Z,26.80
2018-11-06T01:07:13.199Z,28.00
2018-11-06T01:09:42.375Z,27.93
2018-11-06T01:12:11.336Z,28.20
2018-11-06T01:14:40.488Z,28.63
2018-11-06T01:17:09.444Z,27.33
2018-11-06T01:19:38.628Z,29.63
2018-11-06T01:22:07.615Z,28.37
2018-11-06T01:24:36.772Z,28.60
2018-11-06T01:27:05.943Z,27.63
2018-11-06T01:29:35.203Z,28.17
2018-11-06T01:32:04.415Z,29.23
2018-11-06T01:37:37.512Z,29.30
2018-11-06T01:40:09.133Z,27.67
2018-11-06T01:42:38.145Z,29.17
2018-11-06T01:45:10.093Z,26.33
2018-11-06T01:47:39.513Z,26.70
2018-11-06T01:50:10.214Z,26.40
2018-11-06T01:52:40.005Z,25.77
2018-11-06T01:55:10.096Z,26.13
2018-11-06T01:57:39.278Z,26.13
2018-11-06T02:00:10.350Z,26.07
2018-11-06T02:02:39.631Z,26.87
2018-11-06T02:05:09.997Z,28.00
2018-11-06T02:07:39.195Z,27.17
2018-11-06T02:10:10.146Z,25.43
2018-11-06T02:12:39.093Z,26.70
2018-11-06T02:15:08.580Z,26.13
2018-11-06T02:17:38.691Z,25.87
2018-11-06T02:20:07.932Z,26.83
2018-11-06T02:22:36.851Z,28.43
2018-11-06T02:25:06.191Z,26.53
2018-11-06T02:27:35.456Z,27.87
2018-11-06T02:30:05.166Z,26.23
2018-11-06T02:32:34.458Z,27.87
2018-11-06T02:35:03.347Z,27.77
2018-11-06T02:37:32.272Z,29.43
2018-11-06T02:40:01.274Z,27.07
2018-11-06T02:42:30.594Z,27.83
2018-11-06T02:44:59.914Z,28.87
2018-11-06T02:47:28.854Z,27.67
2018-11-06T02:49:57.799Z,28.90
2018-11-06T02:52:26.996Z,28.87
2018-11-06T02:54:55.949Z,29.50
2018-11-06T02:57:25.163Z,29.77
2018-11-06T02:59:54.364Z,27.30
2018-11-06T03:02:23.323Z,28.87
2018-11-06T03:04:52.539Z,29.57
2018-11-06T03:07:21.502Z,30.03
2018-11-06T03:09:50.721Z,28.67
2018-11-06T03:12:19.678Z,28.93
2018-11-06T03:14:48.848Z,28.07
2018-11-06T03:17:17.847Z,28.00
2018-11-06T03:19:46.762Z,29.47
2018-11-06T03:22:15.726Z,29.57
2018-11-06T03:24:44.892Z,27.47
2018-11-06T03:27:13.859Z,28.90
2018-11-06T03:29:43.153Z,28.30
2018-11-06T03:32:12.185Z,28.60
2018-11-06T03:34:41.369Z,27.53
2018-11-06T03:37:10.331Z,28.07
2018-11-06T03:39:39.499Z,27.57
2018-11-06T03:42:09.048Z,28.37
2018-11-06T03:44:38.246Z,27.10
2018-11-06T03:47:07.458Z,26.83
2018-11-06T03:49:36.402Z,26.67
2018-11-06T03:52:05.736Z,27.27
2018-11-06T03:54:34.670Z,27.43
2018-11-06T03:57:03.620Z,26.60
2018-11-06T03:59:32.868Z,27.77
2018-11-06T04:02:02.116Z,27.90
2018-11-06T04:04:31.071Z,30.27
2018-11-06T04:07:00.427Z,30.20
2018-11-06T04:09:29.411Z,28.60
2018-11-06T04:11:58.604Z,28.43
2018-11-06T04:14:27.570Z,27.20
2018-11-06T04:16:56.730Z,27.07
2018-11-06T04:19:25.685Z,27.10
2018-11-06T04:21:54.869Z,25.47
2018-11-06T04:24:23.814Z,26.93
2018-11-06T04:26:52.995Z,26.60
2018-11-06T04:29:22.199Z,25.33
2018-11-06T04:31:51.374Z,26.97
2018-11-06T04:34:20.560Z,26.50
2018-11-06T04:36:49.503Z,26.13
2018-11-06T04:39:18.675Z,27.03
2018-11-06T04:41:47.622Z,26.77
2018-11-06T04:44:16.810Z,26.90
2018-11-06T04:46:45.774Z,28.77
2018-11-06T04:49:15.726Z,28.27
2018-11-06T04:51:44.887Z,25.73
2018-11-06T04:54:13.801Z,28.90
2018-11-06T04:56:42.990Z,27.67
2018-11-06T04:59:11.946Z,27.57
2018-11-06T05:01:41.123Z,29.23
2018-11-06T05:04:10.158Z,27.50
2018-11-06T05:06:39.391Z,27.77
2018-11-06T05:09:09.156Z,26.73
2018-11-06T05:11:38.166Z,27.07
2018-11-06T05:14:07.146Z,27.50
2018-11-06T05:16:36.098Z,26.60
2018-11-06T05:19:05.026Z,26.50
2018-11-06T05:21:34.252Z,29.20
2018-11-06T05:24:03.431Z,28.97
2018-11-06T05:26:32.591Z,27.93
2018-11-06T05:29:01.879Z,28.23
2018-11-06T05:31:30.846Z,27.43
2018-11-06T05:34:00.104Z,28.27
2018-11-06T05:36:29.138Z,27.83
2018-11-06T05:39:04.566Z,28.10
2018-11-06T05:41:33.506Z,26.23
2018-11-06T05:44:02.501Z,26.97
2018-11-06T05:46:31.470Z,24.43
2018-11-06T05:49:00.578Z,25.17
2018-11-06T05:51:29.501Z,24.97
2018-11-06T05:53:58.616Z,25.33
2018-11-06T05:56:27.897Z,25.43
2018-11-06T05:58:56.875Z,25.33
2018-11-06T06:01:27.581Z,24.60
2018-11-06T06:03:57.098Z,24.33
2018-11-06T06:06:27.303Z,24.97
2018-11-06T06:08:56.525Z,25.70
2018-11-06T06:11:27.464Z,25.23
2018-11-06T06:13:56.940Z,25.67
2018-11-06T06:16:25.884Z,26.43
2018-11-06T06:18:55.515Z,25.73
2018-11-06T06:21:24.740Z,26.13
2018-11-06T06:23:53.701Z,26.07
2018-11-06T06:26:24.611Z,28.13
2018-11-06T06:28:53.803Z,25.77
2018-11-06T06:31:23.064Z,29.20
2018-11-06T06:33:52.303Z,28.13
2018-11-06T06:36:21.463Z,27.33
2018-11-06T06:38:50.477Z,27.17
2018-11-06T06:41:19.689Z,27.13
2018-11-06T06:43:48.602Z,27.27
2018-11-06T06:46:17.752Z,27.70
2018-11-06T06:48:46.580Z,27.00
2018-11-06T06:51:15.681Z,25.97
2018-11-06T06:53:44.626Z,27.47
2018-11-06T06:56:13.722Z,26.07
2018-11-06T06:58:42.604Z,27.10
2018-11-06T07:01:11.723Z,26.93
2018-11-06T07:03:41.157Z,26.40
2018-11-06T07:06:10.269Z,27.57
2018-11-06T07:08:39.130Z,27.77
2018-11-06T07:11:08.250Z,27.17
2018-11-06T07:13:37.130Z,27.13
2018-11-06T07:16:07.246Z,28.07
2018-11-06T07:18:36.407Z,26.53
2018-11-06T07:21:05.756Z,26.80
2018-11-06T07:23:34.825Z,27.67
2018-11-06T07:26:04.008Z,27.43
2018-11-06T07:28:33.207Z,25.50
2018-11-06T07:31:02.594Z,26.53
2018-11-06T07:33:38.181Z,27.90
2018-11-06T07:36:07.285Z,25.70
2018-11-06T07:38:36.369Z,28.13
2018-11-06T07:41:05.515Z,26.70
2018-11-06T07:43:34.530Z,26.30
2018-11-06T07:46:03.420Z,26.43
2018-11-06T07:48:32.626Z,24.53
2018-11-06T07:51:01.735Z,25.10
2018-11-06T07:53:30.891Z,23.40
2018-11-06T07:55:59.981Z,24.63
2018-11-06T07:58:29.045Z,23.60
2018-11-06T08:00:57.933Z,23.00
2018-11-06T08:03:27.030Z,22.60
2018-11-06T08:05:55.921Z,22.73
2018-11-06T08:08:25.021Z,24.30
2018-11-06T08:10:54.109Z,24.17
2018-11-06T08:13:23.313Z,23.83
2018-11-06T08:15:52.181Z,22.53
2018-11-06T08:18:21.306Z,21.00
2018-11-06T08:20:50.454Z,21.23
2018-11-06T08:23:19.561Z,21.10
2018-11-06T08:25:48.462Z,20.80
2018-11-06T08:28:17.549Z,20.57
2018-11-06T08:30:46.861Z,20.93
2018-11-06T08:33:15.778Z,21.50
2018-11-06T08:35:44.973Z,20.73
2018-11-06T08:38:14.057Z,20.90
2018-11-06T08:40:42.942Z,21.10
2018-11-06T08:43:11.793Z,21.60
2018-11-06T08:45:40.873Z,21.47
2018-11-06T08:48:09.828Z,21.90
2018-11-06T08:50:38.625Z,23.03
2018-11-06T08:53:07.508Z,23.10
2018-11-06T08:55:36.377Z,22.20
2018-11-06T08:58:05.284Z,21.70
2018-11-06T09:00:34.437Z,21.63
2018-11-06T09:03:03.338Z,22.10
2018-11-06T09:05:32.445Z,22.63
2018-11-06T09:08:01.575Z,20.70
2018-11-06T09:10:30.437Z,20.33
2018-11-06T09:12:59.324Z,19.47
2018-11-06T09:15:28.206Z,19.77
2018-11-06T09:17:57.088Z,21.13
2018-11-06T09:20:25.944Z,19.63
2018-11-06T09:22:55.050Z,19.73
2018-11-06T09:25:23.913Z,18.80
2018-11-06T09:27:52.781Z,20.07
2018-11-06T09:30:21.896Z,18.70
2018-11-06T09:32:51.046Z,17.37
2018-11-06T09:35:19.909Z,17.97
2018-11-06T09:37:49.018Z,19.00
2018-11-06T09:40:19.316Z,19.30
2018-11-06T09:42:48.268Z,18.77
2018-11-06T09:45:17.413Z,18.67
2018-11-06T09:47:46.294Z,18.27
2018-11-06T09:56:18.619Z,18.40
2018-11-06T09:58:47.870Z,18.03
2018-11-06T10:01:16.797Z,16.50
2018-11-06T10:03:45.959Z,16.80
2018-11-06T10:06:15.013Z,16.80
2018-11-06T10:08:44.131Z,15.77
2018-11-06T10:11:13.068Z,16.37
2018-11-06T10:13:42.226Z,16.03
2018-11-06T10:16:12.798Z,15.53
2018-11-06T10:18:42.104Z,14.63
2018-11-06T10:21:11.208Z,15.90
2018-11-06T10:23:40.255Z,15.73
2018-11-06T10:26:09.212Z,15.40
2018-11-06T10:28:38.398Z,18.70
2018-11-06T10:31:07.605Z,15.70
2018-11-06T10:33:36.775Z,14.53
2018-11-06T10:36:05.800Z,14.53
2018-11-06T10:38:35.404Z,15.13
2018-11-06T10:41:04.644Z,15.53
2018-11-06T10:43:33.623Z,15.33
2018-11-06T10:46:02.781Z,16.33
2018-11-06T10:48:31.798Z,16.90
2018-11-06T10:51:01.035Z,14.17
2018-11-06T10:53:30.127Z,15.37
2018-11-06T10:55:59.444Z,15.10
2018-11-06T10:58:28.711Z,14.50
2018-11-06T11:01:03.240Z,14.47
2018-11-06T11:03:39.905Z,14.13
2018-11-06T11:06:09.087Z,13.87
2018-11-06T11:08:38.162Z,12.53
2018-11-06T11:11:07.429Z,13.07
2018-11-06T11:13:36.435Z,13.47
2018-11-06T11:16:06.024Z,12.77
2018-11-06T11:18:35.352Z,12.97
2018-11-06T11:21:04.383Z,13.17
2018-11-06T11:23:33.692Z,11.73
2018-11-06T11:26:02.675Z,12.70
2018-11-06T11:28:31.984Z,12.63
2018-11-06T11:31:01.000Z,12.93
2018-11-06T11:33:30.251Z,12.63
2018-11-06T11:35:59.440Z,13.20
2018-11-06T11:38:28.645Z,12.53
2018-11-06T11:40:58.200Z,12.33
2018-11-06T11:43:27.211Z,12.53
2018-11-06T11:45:56.569Z,12.60
2018-11-06T11:48:25.591Z,11.73
2018-11-06T11:50:54.791Z,11.97
2018-11-06T11:53:23.746Z,12.93
2018-11-06T11:55:53.331Z,11.97
2018-11-06T11:58:22.627Z,12.07
2018-11-06T12:00:51.623Z,11.87
2018-11-06T12:03:20.803Z,12.87
2018-11-06T12:05:49.831Z,10.87
2018-11-06T12:08:19.111Z,12.27
2018-11-06T12:10:48.351Z,10.73
2018-11-06T12:13:17.338Z,10.70
2018-11-06T12:15:46.494Z,10.70
2018-11-06T12:18:15.739Z,10.00
2018-11-06T12:20:44.871Z,10.13
2018-11-06T12:23:13.790Z,9.70
2018-11-06T12:25:43.117Z,9.60
2018-11-06T12:28:11.920Z,10.20
2018-11-06T12:30:41.079Z,9.60
2018-11-06T12:33:10.000Z,10.33
2018-11-06T12:35:39.596Z,9.07
2018-11-06T12:38:08.892Z,10.27
2018-11-06T12:40:37.908Z,8.33
2018-11-06T12:43:07.201Z,8.77
2018-11-06T12:45:36.784Z,9.67
2018-11-06T12:48:06.063Z,9.27
2018-11-06T12:50:35.405Z,8.97
2018-11-06T12:53:04.581Z,8.93
2018-11-06T12:55:34.278Z,8.40
2018-11-06T12:58:03.503Z,8.77
2018-11-06T13:00:32.631Z,8.47
2018-11-06T13:03:02.094Z,8.77
2018-11-06T13:05:31.063Z,9.30
2018-11-06T13:08:00.356Z,9.87
2018-11-06T13:10:29.611Z,10.60
2018-11-06T13:12:58.789Z,9.90
2018-11-06T13:15:27.823Z,10.63
2018-11-06T13:17:57.569Z,10.40
2018-11-06T13:20:26.843Z,10.93
2018-11-06T13:22:55.775Z,11.27
2018-11-06T13:25:25.205Z,10.47
2018-11-06T13:27:54.359Z,11.10
2018-11-06T13:30:23.319Z,10.53
2018-11-06T13:32:53.471Z,12.07
2018-11-06T13:35:22.783Z,11.33
2018-11-06T13:37:51.775Z,10.53
2018-11-06T13:40:21.047Z,10.87
2018-11-06T13:42:50.415Z,12.27
2018-11-06T13:45:21.405Z,10.77
2018-11-06T13:50:27.628Z,11.83
2018-11-06T13:52:56.896Z,11.87
2018-11-06T13:55:25.944Z,11.50
2018-11-06T13:57:54.934Z,12.07
2018-11-06T14:00:23.924Z,10.97
2018-11-06T14:02:53.104Z,12.23
2018-11-06T14:05:22.034Z,11.83
2018-11-06T14:07:50.978Z,11.80
2018-11-06T14:10:20.427Z,13.30
2018-11-06T14:12:49.444Z,12.50
2018-11-06T14:15:18.485Z,12.77
2018-11-06T14:17:47.514Z,12.90
2018-11-06T14:20:16.987Z,12.20
2018-11-06T14:22:46.353Z,12.27
2018-11-06T14:25:15.654Z,12.33
2018-11-06T14:27:44.605Z,11.90
2018-11-06T14:30:15.927Z,11.23
2018-11-06T14:32:45.912Z,11.83
2018-11-06T14:37:52.091Z,11.37
2018-11-06T14:40:21.005Z,11.60
2018-11-06T14:42:50.148Z,10.80
2018-11-06T14:45:19.545Z,10.43
2018-11-06T14:47:48.854Z,10.27
2018-11-06T14:50:17.766Z,10.63
2018-11-06T14:52:46.886Z,11.53
2018-11-06T14:55:16.452Z,11.00
2018-11-06T14:57:45.380Z,11.20
2018-11-06T15:00:15.957Z,11.37
2018-11-06T15:02:46.625Z,12.13
2018-11-06T15:05:16.157Z,12.10
2018-11-06T15:07:45.154Z,11.90
2018-11-06T15:10:14.309Z,12.87
2018-11-06T15:12:49.766Z,14.07
2018-11-06T15:15:18.853Z,14.40
2018-11-06T15:17:48.517Z,15.80
2018-11-06T15:20:20.297Z,16.00
2018-11-06T15:22:49.430Z,13.90
2018-11-06T15:25:18.988Z,14.87
2018-11-06T15:27:47.886Z,14.20
2018-11-06T15:30:17.789Z,15.27
2018-11-06T15:32:46.901Z,15.57
2018-11-06T15:35:17.220Z,16.10
2018-11-06T15:37:46.123Z,16.43
2018-11-06T15:40:17.729Z,16.00
2018-11-06T15:42:46.960Z,15.83
2018-11-06T15:45:17.065Z,17.30
2018-11-06T15:47:46.382Z,17.07
2018-11-06T15:50:16.703Z,17.03
2018-11-06T15:52:46.521Z,16.67
2018-11-06T15:55:15.636Z,17.77
2018-11-06T15:57:44.685Z,17.93
2018-11-06T16:00:17.508Z,18.57
2018-11-06T16:02:46.933Z,17.77
2018-11-06T16:05:16.077Z,17.47
2018-11-06T16:07:45.148Z,17.77
2018-11-06T16:10:16.858Z,18.00
2018-11-06T16:12:46.452Z,18.83
2018-11-06T16:15:15.392Z,18.50
2018-11-06T16:17:44.605Z,18.83
2018-11-06T16:20:14.816Z,19.53
2018-11-06T16:22:44.253Z,18.50
2018-11-06T16:25:14.290Z,18.13
2018-11-06T16:27:43.605Z,19.30
2018-11-06T16:30:16.993Z,18.40
2018-11-06T16:32:46.239Z,18.23
2018-11-06T16:35:16.553Z,19.33
2018-11-06T16:37:45.944Z,17.80
2018-11-06T16:40:15.277Z,19.80
2018-11-06T16:42:44.884Z,19.03
2018-11-06T16:45:16.470Z,19.40
2018-11-06T16:47:46.361Z,20.50
2018-11-06T16:50:16.169Z,20.03
2018-11-06T16:52:45.285Z,20.67
2018-11-06T16:55:14.946Z,20.70
2018-11-06T16:57:44.377Z,21.03
2018-11-06T17:00:15.328Z,22.93
2018-11-06T17:02:44.408Z,23.33
2018-11-06T17:05:14.617Z,22.00
2018-11-06T17:07:44.111Z,23.97
2018-11-06T17:10:14.277Z,21.87
2018-11-06T17:12:43.143Z,23.13
2018-11-06T17:15:17.352Z,23.90
2018-11-06T17:17:47.177Z,22.87
2018-11-06T17:20:16.758Z,23.67
2018-11-06T17:22:45.885Z,23.40
2018-11-06T17:25:16.059Z,23.60
2018-11-06T17:27:45.182Z,24.43
2018-11-06T17:30:15.828Z,25.57
2018-11-06T17:32:45.037Z,24.27
2018-11-06T17:35:15.738Z,25.37
2018-11-06T17:37:44.885Z,25.43
2018-11-06T17:40:15.365Z,25.10
2018-11-06T17:42:44.601Z,26.00
2018-11-06T17:45:18.922Z,25.80
2018-11-06T17:47:47.955Z,27.40
2018-11-06T17:50:17.553Z,26.23
2018-11-06T17:52:46.504Z,25.17
2018-11-06T17:55:16.905Z,26.63
2018-11-06T17:57:45.799Z,24.47
2018-11-06T18:00:17.257Z,25.07
2018-11-06T18:02:46.474Z,24.20
2018-11-06T18:05:16.377Z,24.67
2018-11-06T18:07:45.457Z,25.23
2018-11-06T18:10:16.081Z,27.07
2018-11-06T18:12:45.402Z,28.27
2018-11-06T18:15:14.284Z,26.47
2018-11-06T18:17:43.818Z,26.90
2018-11-06T18:20:13.997Z,26.87
2018-11-06T18:22:43.801Z,27.00
2018-11-06T18:25:13.551Z,26.53
2018-11-06T18:27:42.724Z,27.73
2018-11-06T18:30:18.322Z,26.90
2018-11-06T18:32:47.413Z,27.17
2018-11-06T18:35:17.212Z,29.30
2018-11-06T18:37:46.110Z,28.10
2018-11-06T18:40:17.641Z,28.30
2018-11-06T18:42:47.518Z,31.33
2018-11-06T18:45:16.580Z,28.43
2018-11-06T18:47:45.693Z,31.37
2018-11-06T18:50:15.992Z,30.20
2018-11-06T18:52:46.497Z,31.63
2018-11-06T18:55:15.467Z,31.60
2018-11-06T18:57:47.450Z,29.27
2018-11-06T19:00:18.575Z,32.33
2018-11-06T19:02:49.501Z,30.93
2018-11-06T19:05:19.843Z,30.67
2018-11-06T19:07:49.940Z,30.03
2018-11-06T19:10:19.853Z,29.80
2018-11-06T19:12:49.770Z,32.10
2018-11-06T19:15:20.423Z,30.43
2018-11-06T19:17:50.100Z,30.17
2018-11-06T19:20:18.997Z,30.10
2018-11-06T19:22:48.132Z,30.90
2018-11-06T19:25:17.081Z,30.93
2018-11-06T19:27:45.989Z,31.27
2018-11-06T19:30:17.697Z,30.67
2018-11-06T19:32:46.929Z,29.67
2018-11-06T19:35:16.182Z,32.63
2018-11-06T19:37:45.395Z,31.17
2018-11-06T19:40:15.995Z,29.73
2018-11-06T19:42:45.911Z,31.77
2018-11-06T19:45:14.896Z,30.13
2018-11-06T19:47:43.790Z,31.27
2018-11-06T19:50:14.191Z,30.17
2018-11-06T19:52:43.080Z,30.37
2018-11-06T19:55:13.419Z,31.80
2018-11-06T19:57:42.630Z,30.13
2018-11-06T20:00:16.800Z,31.60
2018-11-06T20:02:47.302Z,30.27
2018-11-06T20:05:17.426Z,29.30
2018-11-06T20:07:47.338Z,32.17
2018-11-06T20:10:17.621Z,33.27
2018-11-06T20:12:48.861Z,31.77
2018-11-06T20:15:18.906Z,33.27
2018-11-06T20:17:47.886Z,32.90
2018-11-06T20:20:22.069Z,32.63
2018-11-06T20:22:51.221Z,33.57
2018-11-06T20:25:20.109Z,34.57
2018-11-06T20:27:49.321Z,34.03
2018-11-06T20:30:21.458Z,36.23
2018-11-06T20:32:50.415Z,35.07
2018-11-06T20:35:19.647Z,34.33
2018-11-06T20:37:48.745Z,34.77
2018-11-06T20:40:19.268Z,35.43
2018-11-06T20:42:48.646Z,33.10
2018-11-06T20:45:18.461Z,34.53
2018-11-06T20:47:57.437Z,33.67
2018-11-06T20:50:26.389Z,34.10
2018-11-06T20:52:55.350Z,32.93
2018-11-06T20:55:24.483Z,37.10
2018-11-06T20:57:53.619Z,33.27
2018-11-06T21:00:25.135Z,33.67
2018-11-06T21:02:55.154Z,35.17
2018-11-06T21:05:24.351Z,38.80
2018-11-06T21:07:53.373Z,35.93
2018-11-06T21:10:23.502Z,36.40
2018-11-06T21:12:52.732Z,38.33
2018-11-06T21:15:22.625Z,35.10
2018-11-06T21:17:51.551Z,38.07
2018-11-06T21:20:20.778Z,35.83
2018-11-06T21:22:49.616Z,34.83
2018-11-06T21:25:18.582Z,34.33
2018-11-06T21:27:47.583Z,35.33
2018-11-06T21:30:19.003Z,34.60
2018-11-06T21:32:49.439Z,33.23
2018-11-06T21:35:18.333Z,33.43
2018-11-06T21:37:47.465Z,33.80
2018-11-06T21:40:17.801Z,32.13
2018-11-06T21:42:47.543Z,33.23
2018-11-06T21:45:17.285Z,36.10
2018-11-06T21:47:47.198Z,34.60
2018-11-06T21:50:16.704Z,33.77
2018-11-06T21:52:45.653Z,35.93
2018-11-06T21:55:16.169Z,33.43
2018-11-06T21:57:45.065Z,31.97
2018-11-06T22:00:16.533Z,32.67
2018-11-06T22:02:45.427Z,30.33
2018-11-06T22:05:15.798Z,32.13
2018-11-06T22:07:44.855Z,32.87
2018-11-06T22:10:16.249Z,33.07
2018-11-06T22:12:45.665Z,32.27
2018-11-06T22:15:15.971Z,32.53
2018-11-06T22:17:44.871Z,33.40
2018-11-06T22:20:14.997Z,32.73
2018-11-06T22:22:44.724Z,33.83
2018-11-06T22:25:13.637Z,32.90
2018-11-06T22:27:43.093Z,33.67
2018-11-06T22:30:14.218Z,33.07
2018-11-06T22:32:44.081Z,32.13
2018-11-06T22:35:14.372Z,32.97
2018-11-06T22:37:43.337Z,32.17
2018-11-06T22:40:13.769Z,32.10
2018-11-06T22:42:42.861Z,33.37
2018-11-06T22:45:14.853Z,32.10
2018-11-06T22:47:43.744Z,33.97
2018-11-06T22:50:15.076Z,32.70
2018-11-06T22:52:44.509Z,31.13
2018-11-06T22:55:13.757Z,33.00
2018-11-06T22:57:43.165Z,33.07
2018-11-06T23:00:16.441Z,33.27
2018-11-06T23:02:45.666Z,34.33
2018-11-06T23:05:15.171Z,31.13
2018-11-06T23:07:49.409Z,34.80
2018-11-06T23:10:18.280Z,32.60
2018-11-06T23:12:47.158Z,33.00
2018-11-06T23:15:16.254Z,32.37
2018-11-06T23:17:45.366Z,32.73
2018-11-06T23:20:14.247Z,33.80
2018-11-06T23:22:43.382Z,35.30
2018-11-06T23:25:12.565Z,33.50
2018-11-06T23:27:41.945Z,34.53
2018-11-06T23:30:13.807Z,36.73
2018-11-06T23:32:42.697Z,33.90
2018-11-06T23:35:11.790Z,32.73
2018-11-06T23:37:41.017Z,32.83
2018-11-06T23:40:10.598Z,34.03
2018-11-06T23:42:39.958Z,33.30
2018-11-06T23:45:09.226Z,32.47
2018-11-06T23:47:38.111Z,32.07
2018-11-06T23:50:08.197Z,32.97
2018-11-06T23:52:37.077Z,34.27
2018-11-06T23:55:06.548Z,34.90
2018-11-06T23:57:35.393Z,33.33
